createdAt,value
2019-02-26T00:00:42.308Z,99.90
2019-02-26T00:07:10.202Z,99.90
2019-02-26T00:09:40.550Z,99.90
2019-02-26T00:12:11.038Z,99.90
2019-02-26T00:14:43.014Z,99.90
2019-02-26T00:17:15.328Z,99.90
2019-02-26T00:19:45.728Z,99.90
2019-02-26T00:22:18.135Z,99.90
2019-02-26T00:24:48.184Z,99.90
2019-02-26T00:27:18.452Z,99.90
2019-02-26T00:29:50.814Z,99.90
2019-02-26T00:32:21.043Z,99.90
2019-02-26T00:34:53.085Z,99.90
2019-02-26T00:37:24.270Z,99.90
2019-02-26T00:39:56.383Z,99.90
2019-02-26T00:42:28.676Z,99.90
2019-02-26T00:45:02.357Z,99.90
2019-02-26T00:47:33.898Z,99.90
2019-02-26T00:50:04.679Z,99.90
2019-02-26T00:52:37.564Z,99.90
2019-02-26T00:55:09.454Z,99.90
2019-02-26T00:57:40.666Z,99.90
2019-02-26T01:00:14.176Z,99.90
2019-02-26T01:02:44.481Z,99.90
2019-02-26T01:05:15.881Z,99.90
2019-02-26T01:07:49.332Z,99.90
2019-02-26T01:10:21.107Z,99.90
2019-02-26T01:12:51.116Z,99.90
2019-02-26T01:15:22.988Z,99.90
2019-02-26T01:17:54.976Z,99.90
2019-02-26T01:20:27.528Z,99.90
2019-02-26T01:22:57.760Z,99.90
2019-02-26T01:25:28.279Z,99.90
2019-02-26T01:28:00.246Z,99.90
2019-02-26T01:30:33.172Z,99.90
2019-02-26T01:33:05.014Z,99.90
2019-02-26T01:35:35.587Z,99.90
2019-02-26T01:38:07.069Z,99.90
2019-02-26T01:40:39.516Z,99.90
2019-02-26T01:43:09.724Z,99.90
2019-02-26T01:45:40.092Z,99.90
2019-02-26T01:48:11.498Z,99.90
2019-02-26T01:50:42.699Z,99.90
2019-02-26T01:53:14.509Z,99.90
2019-02-26T01:55:45.935Z,99.90
2019-02-26T01:58:17.297Z,99.90
2019-02-26T02:00:47.667Z,99.90
2019-02-26T02:03:18.677Z,99.90
2019-02-26T02:05:50.799Z,99.90
2019-02-26T02:08:24.724Z,99.90
2019-02-26T02:10:58.863Z,99.90
2019-02-26T02:13:28.766Z,99.90
2019-02-26T02:15:59.709Z,99.90
2019-02-26T02:18:30.780Z,99.90
2019-02-26T02:21:01.230Z,99.90
2019-02-26T02:23:31.668Z,99.90
2019-02-26T02:26:04.129Z,99.90
2019-02-26T02:28:35.647Z,99.90
2019-02-26T02:31:06.264Z,99.90
2019-02-26T02:33:37.566Z,99.90
2019-02-26T02:36:11.507Z,99.90
2019-02-26T02:38:40.196Z,99.90
2019-02-26T02:41:11.323Z,99.90
2019-02-26T02:43:41.680Z,99.90
2019-02-26T02:46:12.156Z,99.90
2019-02-26T02:48:42.629Z,99.90
2019-02-26T02:51:13.875Z,99.90
2019-02-26T02:53:45.221Z,99.90
2019-02-26T02:56:17.961Z,99.90
2019-02-26T02:58:51.395Z,99.90
2019-02-26T03:01:22.961Z,99.90
2019-02-26T03:03:53.662Z,99.90
2019-02-26T03:06:28.105Z,99.90
2019-02-26T03:08:57.287Z,99.90
2019-02-26T03:11:27.725Z,99.90
2019-02-26T03:13:58.214Z,99.90
2019-02-26T03:16:28.645Z,99.90
2019-02-26T03:18:58.965Z,99.90
2019-02-26T03:21:30.634Z,99.90
2019-02-26T03:24:03.350Z,99.90
2019-02-26T03:26:33.416Z,99.90
2019-02-26T03:29:03.814Z,99.90
2019-02-26T03:31:40.119Z,99.90
2019-02-26T03:34:10.600Z,99.90
2019-02-26T03:36:40.842Z,99.90
2019-02-26T03:39:10.605Z,99.90
2019-02-26T03:41:43.071Z,99.90
2019-02-26T03:44:13.196Z,99.90
2019-02-26T03:46:43.626Z,99.90
2019-02-26T03:49:13.993Z,99.90
2019-02-26T03:51:44.432Z,99.90
2019-02-26T03:54:14.902Z,99.90
2019-02-26T03:56:45.279Z,99.90
2019-02-26T03:59:15.670Z,99.90
2019-02-26T04:01:46.087Z,99.90
2019-02-26T04:04:16.458Z,99.90
2019-02-26T04:06:47.249Z,99.90
2019-02-26T04:09:19.597Z,99.90
2019-02-26T04:11:51.061Z,99.90
2019-02-26T04:14:22.774Z,99.90
2019-02-26T04:16:55.928Z,99.90
2019-02-26T04:19:26.900Z,99.90
2019-02-26T04:22:34.452Z,99.90
2019-02-26T04:25:27.061Z,99.90
2019-02-26T04:28:37.120Z,99.90
2019-02-26T04:31:54.529Z,99.90
2019-02-26T04:35:20.093Z,99.90
2019-02-26T04:39:16.488Z,99.90
2019-02-26T04:42:23.070Z,99.90
2019-02-26T04:45:37.910Z,99.90
2019-02-26T04:48:08.679Z,99.90
2019-02-26T04:50:41.381Z,99.90
2019-02-26T04:53:11.335Z,99.90
2019-02-26T04:55:44.716Z,99.90
2019-02-26T04:58:15.575Z,99.90
2019-02-26T05:00:45.981Z,99.90
2019-02-26T05:03:18.089Z,99.90
2019-02-26T05:05:51.441Z,99.90
2019-02-26T05:08:20.689Z,99.90
2019-02-26T05:10:52.462Z,99.90
2019-02-26T05:13:25.244Z,99.90
2019-02-26T05:15:55.354Z,99.90
2019-02-26T05:18:26.424Z,99.90
2019-02-26T05:20:59.310Z,99.90
2019-02-26T05:23:31.682Z,99.90
2019-02-26T05:26:05.210Z,99.90
2019-02-26T05:28:37.659Z,99.90
2019-02-26T05:31:08.473Z,99.90
2019-02-26T05:33:38.615Z,99.90
2019-02-26T05:36:11.573Z,99.90
2019-02-26T05:38:41.195Z,99.90
2019-02-26T05:41:11.666Z,99.90
2019-02-26T05:43:42.089Z,99.90
2019-02-26T05:46:12.505Z,99.90
2019-02-26T05:48:45.585Z,99.90
2019-02-26T05:51:14.959Z,99.90
2019-02-26T05:53:45.937Z,99.90
2019-02-26T05:56:17.150Z,99.90
2019-02-26T05:58:48.535Z,99.90
2019-02-26T06:01:20.015Z,99.90
2019-02-26T06:03:51.937Z,99.90
2019-02-26T06:06:22.710Z,99.90
2019-02-26T06:08:55.314Z,99.90
2019-02-26T06:11:28.347Z,99.90
2019-02-26T06:13:58.935Z,99.90
2019-02-26T06:16:31.536Z,99.90
2019-02-26T06:19:01.956Z,99.90
2019-02-26T06:21:32.430Z,99.90
2019-02-26T06:24:04.579Z,99.90
2019-02-26T06:26:36.079Z,99.90
2019-02-26T06:29:07.207Z,99.90
2019-02-26T06:31:39.586Z,99.90
2019-02-26T06:34:11.864Z,99.90
2019-02-26T06:36:42.484Z,99.90
2019-02-26T06:39:14.083Z,99.90
2019-02-26T06:41:46.742Z,99.90
2019-02-26T06:44:16.823Z,99.90
2019-02-26T06:46:47.175Z,99.90
2019-02-26T06:49:20.081Z,99.90
2019-02-26T06:51:52.043Z,99.90
2019-02-26T06:54:22.676Z,99.90
2019-02-26T06:56:54.195Z,99.90
2019-02-26T06:59:33.872Z,99.90
2019-02-26T07:02:03.156Z,99.90
2019-02-26T07:04:33.405Z,99.90
2019-02-26T07:07:04.444Z,99.90
2019-02-26T07:09:36.863Z,99.90
2019-02-26T07:12:08.070Z,99.90
2019-02-26T07:14:38.571Z,99.90
2019-02-26T07:17:09.056Z,99.90
2019-02-26T07:19:39.486Z,99.90
2019-02-26T07:22:11.560Z,99.90
2019-02-26T07:24:44.538Z,99.90
2019-02-26T07:27:14.536Z,99.90
2019-02-26T07:29:47.092Z,99.90
2019-02-26T07:32:17.991Z,99.90
2019-02-26T07:34:51.682Z,99.90
2019-02-26T07:37:21.580Z,99.90
2019-02-26T07:39:52.108Z,99.90
2019-02-26T07:42:22.546Z,99.90
2019-02-26T07:44:52.914Z,99.90
2019-02-26T07:47:24.409Z,99.90
2019-02-26T07:49:58.634Z,99.90
2019-02-26T07:52:28.460Z,99.90
2019-02-26T07:54:59.773Z,99.90
2019-02-26T07:57:30.255Z,99.90
2019-02-26T08:00:00.700Z,99.90
2019-02-26T08:02:32.619Z,99.90
2019-02-26T08:05:03.161Z,99.90
2019-02-26T08:07:33.458Z,99.90
2019-02-26T08:10:06.080Z,99.90
2019-02-26T08:12:38.045Z,99.90
2019-02-26T08:15:12.612Z,94.00
2019-02-26T08:17:45.621Z,83.60
2019-02-26T08:20:16.689Z,74.90
2019-02-26T08:22:49.011Z,64.10
2019-02-26T08:25:19.310Z,56.50
2019-02-26T08:27:51.650Z,51.80
2019-02-26T08:30:24.179Z,51.10
2019-02-26T08:32:56.090Z,51.10
2019-02-26T08:35:26.045Z,52.50
2019-02-26T08:37:56.511Z,52.40
2019-02-26T08:40:26.878Z,52.30
2019-02-26T08:42:57.281Z,50.00
2019-02-26T08:45:27.539Z,48.50
2019-02-26T08:47:57.983Z,46.90
2019-02-26T08:50:30.767Z,46.20
2019-02-26T08:53:00.648Z,46.80
2019-02-26T08:55:31.076Z,44.80
2019-02-26T08:58:01.511Z,43.50
2019-02-26T09:00:34.197Z,42.00
2019-02-26T09:03:04.073Z,42.00
2019-02-26T09:05:34.914Z,41.30
2019-02-26T09:08:08.490Z,42.10
2019-02-26T09:10:41.170Z,41.90
2019-02-26T09:13:11.466Z,42.60
2019-02-26T09:15:43.215Z,44.60
2019-02-26T09:18:13.724Z,44.70
2019-02-26T09:20:44.184Z,45.30
2019-02-26T09:23:18.872Z,46.20
2019-02-26T09:25:51.495Z,45.40
2019-02-26T09:28:20.072Z,44.90
2019-02-26T09:30:50.784Z,44.20
2019-02-26T09:33:21.093Z,43.90
2019-02-26T09:35:52.115Z,44.10
2019-02-26T09:38:25.554Z,42.30
2019-02-26T09:40:57.120Z,42.00
2019-02-26T09:43:27.662Z,40.90
2019-02-26T09:45:58.129Z,41.30
2019-02-26T09:48:28.580Z,41.10
2019-02-26T09:50:59.091Z,41.30
2019-02-26T09:53:29.500Z,40.90
2019-02-26T09:55:59.940Z,41.00
2019-02-26T09:58:30.420Z,39.70
2019-02-26T10:01:00.904Z,39.50
2019-02-26T10:03:33.230Z,39.30
2019-02-26T10:06:03.465Z,40.10
2019-02-26T10:08:33.839Z,39.40
2019-02-26T10:11:04.907Z,39.00
2019-02-26T10:13:35.499Z,40.00
2019-02-26T10:16:06.438Z,39.90
2019-02-26T10:18:38.344Z,39.20
2019-02-26T10:21:11.076Z,39.10
2019-02-26T10:23:40.968Z,38.30
2019-02-26T10:26:11.375Z,37.90
2019-02-26T10:28:42.700Z,36.70
2019-02-26T10:31:13.977Z,37.60
2019-02-26T10:33:46.319Z,38.00
2019-02-26T10:36:18.251Z,38.40
2019-02-26T10:38:50.369Z,38.90
2019-02-26T10:41:21.250Z,39.60
2019-02-26T10:43:51.744Z,39.50
2019-02-26T10:46:22.060Z,40.90
2019-02-26T10:48:52.870Z,41.70
2019-02-26T10:51:26.030Z,42.10
2019-02-26T10:53:57.526Z,42.20
2019-02-26T10:56:28.706Z,44.20
2019-02-26T10:59:05.300Z,44.90
2019-02-26T11:01:33.706Z,46.00
2019-02-26T11:04:04.763Z,47.00
2019-02-26T11:06:38.739Z,48.70
2019-02-26T11:09:14.307Z,49.50
2019-02-26T11:11:44.269Z,50.00
2019-02-26T11:14:17.351Z,51.10
2019-02-26T11:16:46.818Z,50.80
2019-02-26T11:19:17.277Z,51.20
2019-02-26T11:21:50.088Z,51.00
2019-02-26T11:24:19.707Z,51.60
2019-02-26T11:26:50.179Z,51.30
2019-02-26T11:29:20.532Z,51.10
2019-02-26T11:31:50.846Z,52.20
2019-02-26T11:34:21.361Z,51.30
2019-02-26T11:36:54.226Z,51.90
2019-02-26T11:39:23.991Z,52.80
2019-02-26T11:41:56.245Z,52.00
2019-02-26T11:44:27.742Z,51.80
2019-02-26T11:46:58.386Z,52.20
2019-02-26T11:49:28.688Z,52.10
2019-02-26T11:51:59.106Z,52.10
2019-02-26T11:54:34.392Z,49.70
2019-02-26T11:57:04.530Z,50.00
2019-02-26T11:59:36.404Z,49.40
2019-02-26T12:02:07.683Z,46.50
2019-02-26T12:04:38.029Z,46.10
2019-02-26T12:07:09.812Z,42.60
2019-02-26T12:09:40.708Z,42.90
2019-02-26T12:12:12.482Z,40.20
2019-02-26T12:14:44.108Z,40.70
2019-02-26T12:17:15.009Z,41.40
2019-02-26T12:19:45.517Z,39.90
2019-02-26T12:22:17.924Z,40.00
2019-02-26T12:24:52.989Z,39.40
2019-02-26T12:27:23.645Z,38.50
2019-02-26T12:29:54.567Z,39.80
2019-02-26T12:32:27.536Z,39.90
2019-02-26T12:34:57.331Z,39.30
2019-02-26T12:37:27.883Z,39.10
2019-02-26T12:39:58.545Z,39.00
2019-02-26T12:42:29.008Z,38.60
2019-02-26T12:45:01.844Z,38.80
2019-02-26T12:47:31.657Z,39.30
2019-02-26T12:50:05.217Z,38.90
2019-02-26T12:52:34.243Z,39.80
2019-02-26T12:55:08.183Z,40.70
2019-02-26T12:57:37.864Z,40.40
2019-02-26T13:00:20.067Z,40.70
2019-02-26T13:02:50.009Z,40.80
2019-02-26T13:05:23.017Z,41.60
2019-02-26T13:07:54.838Z,42.00
2019-02-26T13:10:26.253Z,41.50
2019-02-26T13:13:00.082Z,41.40
2019-02-26T13:15:28.969Z,40.20
2019-02-26T13:17:59.427Z,40.60
2019-02-26T13:20:29.974Z,41.50
2019-02-26T13:23:16.320Z,42.10
2019-02-26T13:25:32.659Z,42.00
2019-02-26T13:28:03.210Z,41.40
2019-02-26T13:30:33.572Z,40.70
2019-02-26T13:33:10.132Z,40.70
2019-02-26T13:35:36.277Z,40.30
2019-02-26T13:38:06.765Z,41.10
2019-02-26T13:40:38.646Z,41.60
2019-02-26T13:43:10.171Z,42.20
2019-02-26T13:45:40.765Z,43.10
2019-02-26T13:48:11.362Z,42.60
2019-02-26T13:50:42.025Z,43.60
2019-02-26T13:53:12.444Z,43.30
2019-02-26T13:55:42.873Z,43.70
2019-02-26T13:58:13.329Z,44.30
2019-02-26T14:00:43.774Z,44.50
2019-02-26T14:03:14.262Z,45.80
2019-02-26T14:05:44.748Z,46.30
2019-02-26T14:08:15.226Z,46.80
2019-02-26T14:10:45.743Z,46.10
2019-02-26T14:13:16.105Z,46.50
2019-02-26T14:15:46.564Z,45.10
2019-02-26T14:18:17.047Z,44.70
2019-02-26T14:20:47.655Z,43.90
2019-02-26T14:23:18.148Z,43.70
2019-02-26T14:25:49.889Z,44.10
2019-02-26T14:28:20.345Z,44.20
2019-02-26T14:30:50.874Z,44.50
2019-02-26T14:33:21.216Z,44.30
2019-02-26T14:35:51.878Z,43.20
2019-02-26T14:38:22.404Z,42.10
2019-02-26T14:40:52.935Z,41.20
2019-02-26T14:43:23.409Z,41.10
2019-02-26T14:45:53.876Z,41.50
2019-02-26T14:48:24.310Z,42.10
2019-02-26T14:50:54.798Z,41.80
2019-02-26T14:53:25.163Z,42.80
2019-02-26T14:55:55.562Z,43.60
2019-02-26T14:58:26.079Z,43.70
2019-02-26T15:00:58.209Z,44.40
2019-02-26T15:03:28.832Z,45.10
2019-02-26T15:05:59.355Z,45.50
2019-02-26T15:08:29.962Z,45.60
2019-02-26T15:11:00.525Z,45.50
2019-02-26T15:13:30.897Z,45.90
2019-02-26T15:16:01.499Z,45.90
2019-02-26T15:18:32.209Z,46.20
2019-02-26T15:21:02.700Z,46.50
2019-02-26T15:23:33.250Z,46.30
2019-02-26T15:26:03.637Z,46.20
2019-02-26T15:28:34.191Z,46.90
2019-02-26T15:31:26.616Z,46.90
2019-02-26T15:33:57.042Z,47.20
2019-02-26T15:36:27.511Z,46.20
2019-02-26T15:38:59.795Z,47.10
2019-02-26T15:41:30.146Z,47.30
2019-02-26T15:50:02.532Z,48.10
2019-02-26T15:52:32.993Z,48.90
2019-02-26T15:55:03.574Z,48.80
2019-02-26T15:57:34.126Z,48.00
2019-02-26T16:19:23.559Z,50.80
2019-02-26T16:21:53.968Z,51.30
2019-02-26T16:24:24.466Z,52.30
2019-02-26T16:26:55.020Z,51.90
2019-02-26T16:29:25.500Z,52.70
2019-02-26T16:31:57.299Z,53.30
2019-02-26T16:34:27.846Z,53.50
2019-02-26T16:36:58.178Z,54.30
2019-02-26T16:39:28.770Z,54.80
2019-02-26T16:41:59.461Z,55.20
2019-02-26T16:44:30.013Z,55.20
2019-02-26T16:47:00.537Z,55.80
2019-02-26T16:49:30.966Z,56.40
2019-02-26T16:52:01.587Z,56.80
2019-02-26T16:54:32.108Z,57.20
2019-02-26T16:57:02.693Z,57.60
2019-02-26T16:59:33.209Z,57.90
2019-02-26T17:02:03.729Z,58.50
2019-02-26T17:04:34.323Z,59.20
2019-02-26T17:07:04.796Z,59.70
2019-02-26T17:09:35.143Z,60.30
2019-02-26T17:12:05.972Z,60.40
2019-02-26T17:14:37.169Z,60.70
2019-02-26T17:17:07.836Z,61.40
2019-02-26T17:19:38.402Z,62.40
2019-02-26T17:22:09.093Z,63.80
2019-02-26T17:24:39.558Z,64.70
2019-02-26T17:27:10.176Z,66.40
2019-02-26T17:29:41.688Z,72.30
2019-02-26T17:32:12.099Z,74.40
2019-02-26T17:34:42.828Z,77.40
2019-02-26T17:37:13.336Z,77.80
2019-02-26T17:39:44.230Z,79.40
2019-02-26T17:42:15.636Z,81.50
2019-02-26T17:44:46.358Z,84.40
2019-02-26T17:47:17.143Z,88.10
2019-02-26T17:49:47.970Z,91.40
2019-02-26T17:52:18.486Z,94.40
2019-02-26T17:54:49.795Z,96.40
2019-02-26T17:57:20.207Z,98.00
2019-02-26T17:59:52.707Z,99.90
2019-02-26T18:02:27.402Z,99.90
2019-02-26T18:04:58.478Z,99.90
2019-02-26T18:07:30.013Z,99.90
2019-02-26T18:10:00.411Z,99.90
2019-02-26T18:12:30.926Z,99.90
2019-02-26T18:15:01.392Z,99.90
2019-02-26T18:17:31.951Z,99.90
2019-02-26T18:20:02.374Z,99.90
2019-02-26T18:22:33.012Z,99.90
2019-02-26T18:25:03.713Z,99.90
2019-02-26T18:27:34.470Z,99.90
2019-02-26T18:30:06.035Z,99.90
2019-02-26T18:32:36.572Z,99.90
2019-02-26T18:35:07.139Z,99.90
2019-02-26T18:37:46.021Z,99.90
2019-02-26T18:40:10.455Z,99.90
2019-02-26T18:42:41.355Z,99.90
2019-02-26T18:45:18.916Z,99.90
2019-02-26T18:47:49.367Z,99.90
2019-02-26T18:50:19.853Z,99.90
2019-02-26T18:52:50.394Z,99.90
2019-02-26T18:55:21.160Z,99.90
2019-02-26T18:57:51.605Z,99.90
2019-02-26T19:00:25.963Z,99.90
2019-02-26T19:02:56.814Z,99.90
2019-02-26T19:05:27.428Z,99.90
2019-02-26T19:07:57.955Z,99.90
2019-02-26T19:10:28.412Z,99.90
2019-02-26T19:13:02.402Z,99.90
2019-02-26T19:15:31.316Z,99.90
2019-02-26T19:18:02.647Z,99.90
2019-02-26T19:20:33.774Z,99.90
2019-02-26T19:23:04.383Z,99.90
2019-02-26T19:25:41.393Z,99.90
2019-02-26T19:28:09.964Z,99.90
2019-02-26T19:30:40.536Z,99.90
2019-02-26T19:33:11.239Z,99.90
2019-02-26T19:35:41.782Z,99.90
2019-02-26T19:38:12.326Z,99.90
2019-02-26T19:40:43.758Z,99.90
2019-02-26T19:43:14.333Z,99.90
2019-02-26T19:45:45.065Z,99.90
2019-02-26T19:48:15.767Z,99.90
2019-02-26T19:50:48.726Z,99.90
2019-02-26T19:53:18.573Z,99.90
2019-02-26T19:55:50.030Z,99.90
2019-02-26T19:58:20.559Z,99.90
2019-02-26T20:00:53.145Z,99.90
2019-02-26T20:03:23.632Z,99.90
2019-02-26T20:05:54.294Z,99.90
2019-02-26T20:08:24.882Z,99.90
2019-02-26T20:10:55.385Z,99.90
2019-02-26T20:13:25.805Z,99.90
2019-02-26T20:15:56.421Z,99.90
2019-02-26T20:18:26.947Z,99.90
2019-02-26T20:20:58.760Z,99.90
2019-02-26T20:23:29.381Z,99.90
2019-02-26T20:25:59.888Z,99.90
2019-02-26T20:28:30.286Z,99.90
2019-02-26T20:31:00.878Z,99.90
2019-02-26T20:33:31.371Z,99.90
2019-02-26T20:36:01.956Z,99.90
2019-02-26T20:38:35.206Z,99.90
2019-02-26T20:41:05.042Z,99.90
2019-02-26T20:43:36.800Z,99.90
